createdAt,value
2019-01-17T00:00:36.007Z,99936.12
2019-01-17T00:02:11.702Z,99928.88
2019-01-17T00:03:34.656Z,99922.03
2019-01-17T00:04:58.261Z,99928.38
2019-01-17T00:06:28.000Z,99927.09
2019-01-17T00:07:51.695Z,99924.53
2019-01-17T00:09:03.257Z,99931.82
2019-01-17T00:10:30.940Z,99929.23
2019-01-17T00:11:53.504Z,99928.01
2019-01-17T00:13:16.424Z,99936.57
2019-01-17T00:14:43.828Z,99924.59
2019-01-17T00:16:14.730Z,99923.78
2019-01-17T00:17:46.698Z,99930.17
2019-01-17T00:19:12.383Z,99928.88
2019-01-17T00:20:35.368Z,99933.16
2019-01-17T00:21:56.942Z,99930.17
2019-01-17T00:23:24.049Z,99922.05
2019-01-17T00:24:39.607Z,99929.31
2019-01-17T00:26:04.132Z,99928.45
2019-01-17T00:27:34.013Z,99926.31
2019-01-17T00:28:57.122Z,99922.05
2019-01-17T00:30:21.345Z,99924.17
2019-01-17T00:31:39.354Z,99918.66
2019-01-17T00:32:54.827Z,99917.35
2019-01-17T00:34:18.171Z,99925.03
2019-01-17T00:35:42.297Z,99916.52
2019-01-17T00:37:02.012Z,99927.16
2019-01-17T00:38:26.350Z,99918.66
2019-01-17T00:39:50.847Z,99919.52
2019-01-17T00:41:21.008Z,99924.59
2019-01-17T00:42:48.267Z,99916.51
2019-01-17T00:44:18.165Z,99917.35
2019-01-17T00:45:43.627Z,99913.95
2019-01-17T00:47:22.084Z,99920.75
2019-01-17T00:48:34.261Z,99917.75
2019-01-17T00:49:58.391Z,99915.58
2019-01-17T00:51:21.037Z,99915.21
2019-01-17T00:52:56.313Z,99915.21
2019-01-17T00:54:15.186Z,99919.91
2019-01-17T00:55:38.126Z,99905.81
2019-01-17T00:57:08.079Z,99921.22
2019-01-17T00:58:30.635Z,99925.87
2019-01-17T00:59:58.063Z,99930.95
2019-01-17T01:01:10.807Z,99928.88
2019-01-17T01:02:37.633Z,99927.13
2019-01-17T01:04:05.237Z,99920.36
2019-01-17T01:05:47.529Z,99922.86
2019-01-17T01:07:13.661Z,99918.19
2019-01-17T01:08:40.912Z,99915.65
2019-01-17T01:10:03.451Z,99924.52
2019-01-17T01:11:24.233Z,99934.36
2019-01-17T01:12:47.305Z,99925.89
2019-01-17T01:14:11.153Z,99917.30
2019-01-17T01:15:38.141Z,99927.54
2019-01-17T01:17:11.882Z,99932.22
2019-01-17T01:18:32.574Z,99939.03
2019-01-17T01:19:57.898Z,99923.70
2019-01-17T01:21:16.592Z,99922.38
2019-01-17T01:22:46.399Z,99918.95
2019-01-17T01:24:16.597Z,99927.89
2019-01-17T01:25:39.520Z,99929.98
2019-01-17T01:27:18.622Z,99929.16
2019-01-17T01:28:41.590Z,99935.59
2019-01-17T01:30:05.382Z,99932.14
2019-01-17T01:31:47.822Z,99932.12
2019-01-17T01:33:12.036Z,99927.47
2019-01-17T01:34:44.866Z,99932.12
2019-01-17T01:36:14.513Z,99938.95
2019-01-17T01:37:43.303Z,99938.55
2019-01-17T01:39:13.159Z,99943.19
2019-01-17T01:40:33.999Z,99942.77
2019-01-17T01:41:58.232Z,99949.19
2019-01-17T01:43:22.023Z,99938.98
2019-01-17T01:44:53.602Z,99938.52
2019-01-17T01:46:36.283Z,99947.05
2019-01-17T01:48:10.356Z,99948.25
2019-01-17T01:49:29.685Z,99944.91
2019-01-17T01:50:53.105Z,99944.09
2019-01-17T01:52:05.649Z,99936.38
2019-01-17T01:53:11.044Z,99944.44
2019-01-17T01:54:21.881Z,99941.02
2019-01-17T01:55:23.011Z,99951.26
2019-01-17T01:56:28.153Z,99948.78
2019-01-17T01:57:33.206Z,99952.92
2019-01-17T01:58:38.612Z,99947.41
2019-01-17T01:59:43.889Z,99945.28
2019-01-17T02:00:49.592Z,99944.86
2019-01-17T02:01:54.944Z,99951.25
2019-01-17T02:03:00.692Z,99951.23
2019-01-17T02:04:07.163Z,99941.44
2019-01-17T02:05:12.791Z,99946.56
2019-01-17T02:06:18.203Z,99949.48
2019-01-17T02:07:23.216Z,99949.89
2019-01-17T02:08:28.409Z,99950.78
2019-01-17T02:09:33.826Z,99952.01
2019-01-17T02:10:38.492Z,99952.92
2019-01-17T02:11:43.545Z,99952.90
2019-01-17T02:12:48.553Z,99957.16
2019-01-17T02:13:55.150Z,99960.12
2019-01-17T02:15:00.868Z,99962.33
2019-01-17T02:16:05.663Z,99961.44
2019-01-17T02:17:11.128Z,99958.38
2019-01-17T02:18:15.668Z,99963.52
2019-01-17T02:19:21.670Z,99963.11
2019-01-17T02:20:27.093Z,99962.24
2019-01-17T02:21:32.694Z,99962.24
2019-01-17T02:22:37.577Z,99966.95
2019-01-17T02:23:42.695Z,99966.47
2019-01-17T02:24:47.935Z,99961.83
2019-01-17T02:25:53.142Z,99963.05
2019-01-17T02:27:01.775Z,99968.22
2019-01-17T02:28:07.133Z,99963.13
2019-01-17T02:29:12.705Z,99961.38
2019-01-17T02:30:17.992Z,99965.24
2019-01-17T02:31:22.928Z,99963.58
2019-01-17T02:32:27.733Z,99961.91
2019-01-17T02:33:33.348Z,99959.71
2019-01-17T02:34:38.988Z,99959.30
2019-01-17T02:35:44.617Z,99968.25
2019-01-17T02:36:50.375Z,99958.38
2019-01-17T02:37:55.319Z,99960.98
2019-01-17T02:39:00.902Z,99966.02
2019-01-17T02:40:06.298Z,99960.49
2019-01-17T02:41:11.671Z,99962.69
2019-01-17T02:42:16.522Z,99956.69
2019-01-17T02:43:21.692Z,99963.50
2019-01-17T02:44:26.914Z,99963.94
2019-01-17T02:45:31.778Z,99955.42
2019-01-17T02:46:37.119Z,99957.55
2019-01-17T02:47:42.133Z,99961.80
2019-01-17T02:48:47.758Z,99958.41
2019-01-17T02:49:52.297Z,99954.56
2019-01-17T02:50:57.247Z,99959.21
2019-01-17T02:52:02.161Z,99954.98
2019-01-17T02:53:07.740Z,99947.31
2019-01-17T02:54:12.628Z,99954.93
2019-01-17T02:55:17.978Z,99956.59
2019-01-17T02:56:23.017Z,99960.08
2019-01-17T02:57:27.599Z,99957.46
2019-01-17T02:58:32.479Z,99963.44
2019-01-17T02:59:37.863Z,99959.16
2019-01-17T03:00:42.820Z,99960.02
2019-01-17T03:01:48.163Z,99963.86
2019-01-17T03:02:53.497Z,99952.76
2019-01-17T03:03:58.836Z,99954.55
2019-01-17T03:05:03.494Z,99952.76
2019-01-17T03:06:09.279Z,99946.36
2019-01-17T03:07:14.146Z,99948.09
2019-01-17T03:08:19.532Z,99954.93
2019-01-17T03:09:24.604Z,99946.39
2019-01-17T03:10:30.437Z,99954.82
2019-01-17T03:11:36.045Z,99943.78
2019-01-17T03:12:41.562Z,99941.17
2019-01-17T03:13:47.678Z,99943.36
2019-01-17T03:14:53.476Z,99939.08
2019-01-17T03:15:58.338Z,99928.82
2019-01-17T03:17:03.385Z,99918.56
2019-01-17T03:18:08.752Z,99913.47
2019-01-17T03:19:13.379Z,99913.01
2019-01-17T03:20:18.709Z,99909.55
2019-01-17T03:21:24.119Z,99913.84
2019-01-17T03:22:29.274Z,99915.17
2019-01-17T03:23:34.991Z,99918.51
2019-01-17T03:24:43.086Z,99919.81
2019-01-17T03:25:47.479Z,99921.14
2019-01-17T03:26:52.976Z,99924.13
2019-01-17T03:28:00.626Z,99918.16
2019-01-17T03:29:05.595Z,99914.73
2019-01-17T03:30:14.163Z,99919.03
2019-01-17T03:31:19.143Z,99922.03
2019-01-17T03:32:23.912Z,99919.48
2019-01-17T03:33:29.420Z,99930.07
2019-01-17T03:34:34.747Z,99925.48
2019-01-17T03:35:40.120Z,99924.20
2019-01-17T03:36:45.083Z,99921.25
2019-01-17T03:37:49.986Z,99918.62
2019-01-17T03:38:55.787Z,99919.09
2019-01-17T03:40:00.961Z,99916.95
2019-01-17T03:41:06.462Z,99915.30
2019-01-17T03:42:12.222Z,99916.11
2019-01-17T03:43:17.082Z,99920.42
2019-01-17T03:44:22.376Z,99913.53
2019-01-17T03:45:27.213Z,99913.53
2019-01-17T03:46:32.328Z,99916.55
2019-01-17T03:47:38.052Z,99914.83
2019-01-17T03:48:43.807Z,99912.72
2019-01-17T03:49:48.387Z,99913.19
2019-01-17T03:50:54.020Z,99914.00
2019-01-17T03:51:59.324Z,99916.58
2019-01-17T03:53:04.372Z,99918.22
2019-01-17T03:54:10.588Z,99922.06
2019-01-17T03:55:17.888Z,99925.07
2019-01-17T03:56:22.492Z,99931.48
2019-01-17T03:57:27.357Z,99928.48
2019-01-17T03:58:33.129Z,99932.83
2019-01-17T03:59:39.246Z,99937.94
2019-01-17T04:00:44.163Z,99934.98
2019-01-17T04:01:49.118Z,99937.08
2019-01-17T04:02:57.609Z,99937.47
2019-01-17T04:04:02.565Z,99939.19
2019-01-17T04:05:08.094Z,99938.78
2019-01-17T04:06:12.949Z,99940.42
2019-01-17T04:07:18.735Z,99938.33
2019-01-17T04:08:23.754Z,99934.10
2019-01-17T04:09:29.526Z,99939.13
2019-01-17T04:10:37.773Z,99937.91
2019-01-17T04:11:42.403Z,99936.24
2019-01-17T04:12:46.914Z,99937.98
2019-01-17T04:13:51.756Z,99939.16
2019-01-17T04:14:57.160Z,99936.66
2019-01-17T04:16:02.047Z,99934.49
2019-01-17T04:17:07.287Z,99933.27
2019-01-17T04:18:12.226Z,99934.09
2019-01-17T04:19:17.818Z,99928.98
2019-01-17T04:20:23.155Z,99928.98
2019-01-17T04:21:28.187Z,99933.70
2019-01-17T04:22:33.895Z,99934.63
2019-01-17T04:23:38.848Z,99928.23
2019-01-17T04:24:43.903Z,99926.03
2019-01-17T04:25:50.353Z,99924.73
2019-01-17T04:26:55.820Z,99919.56
2019-01-17T04:28:01.049Z,99920.00
2019-01-17T04:29:06.022Z,99922.20
2019-01-17T04:30:16.569Z,99920.95
2019-01-17T04:31:22.839Z,99921.33
2019-01-17T04:32:28.517Z,99922.27
2019-01-17T04:33:34.230Z,99917.13
2019-01-17T04:34:39.058Z,99915.43
2019-01-17T04:35:44.425Z,99913.31
2019-01-17T04:36:49.856Z,99920.13
2019-01-17T04:37:55.477Z,99915.45
2019-01-17T04:39:00.784Z,99918.46
2019-01-17T04:40:06.273Z,99915.09
2019-01-17T04:41:12.094Z,99919.79
2019-01-17T04:42:17.842Z,99913.00
2019-01-17T04:43:22.482Z,99910.37
2019-01-17T04:44:27.884Z,99904.36
2019-01-17T04:45:33.278Z,99908.25
2019-01-17T04:46:38.334Z,99906.53
2019-01-17T04:47:43.005Z,99904.76
2019-01-17T04:48:48.621Z,99897.55
2019-01-17T04:49:54.417Z,99903.06
2019-01-17T04:50:59.643Z,99904.00
2019-01-17T04:52:04.705Z,99907.81
2019-01-17T04:53:10.903Z,99905.25
2019-01-17T04:54:16.243Z,99903.91
2019-01-17T04:55:21.340Z,99911.09
2019-01-17T04:56:26.776Z,99905.17
2019-01-17T04:57:32.157Z,99909.02
2019-01-17T04:58:37.203Z,99915.85
2019-01-17T04:59:42.531Z,99914.16
2019-01-17T05:00:47.461Z,99908.17
2019-01-17T05:01:53.285Z,99910.66
2019-01-17T05:02:58.326Z,99905.15
2019-01-17T05:04:03.757Z,99913.30
2019-01-17T05:05:08.798Z,99917.97
2019-01-17T05:06:14.165Z,99917.52
2019-01-17T05:07:22.743Z,99916.58
2019-01-17T05:08:28.039Z,99920.05
2019-01-17T05:09:33.324Z,99923.53
2019-01-17T05:11:28.917Z,99915.02
2019-01-17T05:12:34.211Z,99912.03
2019-01-17T05:13:39.940Z,99911.63
2019-01-17T05:14:45.710Z,99913.70
2019-01-17T05:15:51.047Z,99915.45
2019-01-17T05:16:57.752Z,99918.22
2019-01-17T05:18:02.832Z,99915.23
2019-01-17T05:19:08.109Z,99915.64
2019-01-17T05:20:14.721Z,99913.06
2019-01-17T05:21:23.124Z,99918.67
2019-01-17T05:22:29.183Z,99915.20
2019-01-17T05:23:34.495Z,99907.03
2019-01-17T05:24:40.359Z,99910.42
2019-01-17T05:25:45.723Z,99907.00
2019-01-17T05:26:51.560Z,99911.75
2019-01-17T05:27:56.489Z,99908.36
2019-01-17T05:29:01.980Z,99909.11
2019-01-17T05:30:08.828Z,99910.45
2019-01-17T05:31:14.593Z,99911.28
2019-01-17T05:32:19.402Z,99910.89
2019-01-17T05:33:24.611Z,99913.81
2019-01-17T05:34:29.939Z,99908.23
2019-01-17T05:35:35.268Z,99906.55
2019-01-17T05:36:40.951Z,99911.31
2019-01-17T05:37:46.266Z,99911.73
2019-01-17T05:38:53.894Z,99910.47
2019-01-17T05:40:00.444Z,99910.89
2019-01-17T05:41:05.443Z,99913.03
2019-01-17T05:42:11.101Z,99913.47
2019-01-17T05:43:16.087Z,99916.03
2019-01-17T05:44:21.286Z,99917.67
2019-01-17T05:45:26.679Z,99910.42
2019-01-17T05:46:31.627Z,99914.23
2019-01-17T05:47:36.968Z,99914.26
2019-01-17T05:48:42.304Z,99917.29
2019-01-17T05:49:48.087Z,99914.28
2019-01-17T05:50:53.773Z,99914.34
2019-01-17T05:51:59.118Z,99912.17
2019-01-17T05:53:04.158Z,99910.47
2019-01-17T05:54:09.619Z,99910.89
2019-01-17T05:55:19.668Z,99916.01
2019-01-17T05:56:22.131Z,99918.14
2019-01-17T05:57:30.398Z,99916.00
2019-01-17T05:58:36.197Z,99914.73
2019-01-17T05:59:41.509Z,99913.45
2019-01-17T06:00:47.040Z,99911.73
2019-01-17T06:01:52.574Z,99917.31
2019-01-17T06:02:57.902Z,99911.33
2019-01-17T06:04:02.827Z,99913.03
2019-01-17T06:05:07.852Z,99911.33
2019-01-17T06:06:13.542Z,99915.17
2019-01-17T06:07:19.300Z,99922.01
2019-01-17T06:08:25.583Z,99919.43
2019-01-17T06:09:31.359Z,99910.89
2019-01-17T06:10:36.301Z,99915.15
2019-01-17T06:11:41.619Z,99914.73
2019-01-17T06:12:46.849Z,99910.50
2019-01-17T06:13:51.953Z,99910.50
2019-01-17T06:14:56.611Z,99910.45
2019-01-17T06:16:01.639Z,99917.73
2019-01-17T06:17:06.508Z,99917.73
2019-01-17T06:18:11.931Z,99915.59
2019-01-17T06:19:17.293Z,99913.42
2019-01-17T06:20:22.549Z,99913.42
2019-01-17T06:21:28.000Z,99916.76
2019-01-17T06:22:33.300Z,99907.78
2019-01-17T06:23:38.571Z,99912.00
2019-01-17T06:24:43.914Z,99906.14
2019-01-17T06:25:49.801Z,99908.73
2019-01-17T06:26:55.392Z,99907.05
2019-01-17T06:28:00.646Z,99904.11
2019-01-17T06:29:06.181Z,99905.83
2019-01-17T06:30:13.365Z,99903.66
2019-01-17T06:31:18.361Z,99905.70
2019-01-17T06:32:23.252Z,99905.33
2019-01-17T06:33:29.098Z,99901.47
2019-01-17T06:34:34.386Z,99905.80
2019-01-17T06:35:39.835Z,99901.50
2019-01-17T06:36:44.854Z,99897.60
2019-01-17T06:37:50.210Z,99899.33
2019-01-17T06:38:56.125Z,99901.00
2019-01-17T06:40:00.959Z,99899.30
2019-01-17T06:41:05.983Z,99903.14
2019-01-17T06:42:11.306Z,99898.86
2019-01-17T06:43:16.925Z,99905.61
2019-01-17T06:44:21.996Z,99902.61
2019-01-17T06:45:27.943Z,99905.61
2019-01-17T06:46:33.401Z,99898.61
2019-01-17T06:47:39.279Z,99899.41
2019-01-17T06:48:44.597Z,99901.91
2019-01-17T06:49:50.088Z,99902.38
2019-01-17T06:50:55.676Z,99903.19
2019-01-17T06:52:04.034Z,99898.75
2019-01-17T06:53:09.502Z,99901.78
2019-01-17T06:54:14.970Z,99898.63
2019-01-17T06:55:20.464Z,99902.36
2019-01-17T06:56:25.712Z,99901.47
2019-01-17T06:57:31.016Z,99902.66
2019-01-17T06:58:36.207Z,99901.23
2019-01-17T06:59:41.625Z,99907.29
2019-01-17T07:00:47.745Z,99905.95
2019-01-17T07:01:53.087Z,99907.62
2019-01-17T07:02:58.145Z,99907.17
2019-01-17T07:04:03.107Z,99910.63
2019-01-17T07:05:08.185Z,99912.79
2019-01-17T07:06:12.847Z,99904.70
2019-01-17T07:07:18.169Z,99911.63
2019-01-17T07:08:23.270Z,99908.98
2019-01-17T07:09:28.339Z,99907.27
2019-01-17T07:10:33.539Z,99911.57
2019-01-17T07:11:38.530Z,99907.77
2019-01-17T07:12:44.144Z,99905.69
2019-01-17T07:13:49.714Z,99906.11
2019-01-17T07:14:55.610Z,99908.24
2019-01-17T07:16:00.673Z,99909.91
2019-01-17T07:17:05.930Z,99911.63
2019-01-17T07:18:11.512Z,99900.88
2019-01-17T07:19:17.864Z,99901.32
2019-01-17T07:20:23.500Z,99904.31
2019-01-17T07:21:29.405Z,99901.73
2019-01-17T07:22:35.879Z,99904.26
2019-01-17T07:23:40.775Z,99902.66
2019-01-17T07:24:46.530Z,99903.04
2019-01-17T07:25:51.962Z,99905.12
2019-01-17T07:26:56.910Z,99901.23
2019-01-17T07:28:02.368Z,99902.56
2019-01-17T07:29:08.189Z,99901.20
2019-01-17T07:30:19.278Z,99903.75
2019-01-17T07:31:24.451Z,99906.73
2019-01-17T07:32:33.550Z,99902.41
2019-01-17T07:33:38.915Z,99908.45
2019-01-17T07:34:44.388Z,99910.91
2019-01-17T07:35:50.078Z,99918.13
2019-01-17T07:36:58.293Z,99908.73
2019-01-17T07:38:03.837Z,99916.91
2019-01-17T07:39:14.866Z,99919.12
2019-01-17T07:40:20.587Z,99920.39
2019-01-17T07:41:26.130Z,99918.31
2019-01-17T07:42:31.473Z,99922.18
2019-01-17T07:43:37.030Z,99917.45
2019-01-17T07:44:42.388Z,99913.17
2019-01-17T07:45:47.379Z,99918.64
2019-01-17T07:46:52.379Z,99917.78
2019-01-17T07:47:57.969Z,99918.13
2019-01-17T07:49:03.654Z,99916.44
2019-01-17T07:50:16.624Z,99919.41
2019-01-17T07:51:27.610Z,99910.40
2019-01-17T07:52:36.893Z,99917.62
2019-01-17T07:53:42.015Z,99924.84
2019-01-17T07:54:48.836Z,99913.69
2019-01-17T07:55:54.101Z,99918.38
2019-01-17T07:56:59.233Z,99914.48
2019-01-17T07:58:04.234Z,99920.42
2019-01-17T07:59:10.204Z,99920.42
2019-01-17T08:00:17.825Z,99919.22
2019-01-17T08:01:22.800Z,99923.56
2019-01-17T08:02:27.711Z,99924.01
2019-01-17T08:03:33.354Z,99929.12
2019-01-17T08:04:38.035Z,99922.73
2019-01-17T08:05:44.982Z,99927.94
2019-01-17T08:06:49.932Z,99926.37
2019-01-17T08:07:55.742Z,99926.30
2019-01-17T08:09:01.260Z,99928.16
2019-01-17T08:10:08.295Z,99927.80
2019-01-17T08:11:13.640Z,99928.75
2019-01-17T08:12:20.946Z,99929.67
2019-01-17T08:13:26.372Z,99928.34
2019-01-17T08:14:31.399Z,99923.70
2019-01-17T08:15:36.440Z,99923.76
2019-01-17T08:16:47.498Z,99922.09
2019-01-17T08:17:52.582Z,99927.27
2019-01-17T08:18:58.154Z,99921.38
2019-01-17T08:20:04.005Z,99925.71
2019-01-17T08:21:11.786Z,99922.27
2019-01-17T08:22:16.798Z,99918.06
2019-01-17T08:23:21.748Z,99924.87
2019-01-17T08:24:26.368Z,99926.69
2019-01-17T08:25:31.759Z,99924.52
2019-01-17T08:26:37.421Z,99924.55
2019-01-17T08:27:42.376Z,99923.70
2019-01-17T08:28:48.488Z,99922.84
2019-01-17T08:29:56.674Z,99923.66
2019-01-17T08:31:04.266Z,99922.06
2019-01-17T08:32:09.257Z,99920.76
2019-01-17T08:33:14.485Z,99922.90
2019-01-17T08:34:19.342Z,99924.63
2019-01-17T08:35:24.155Z,99919.98
2019-01-17T08:36:29.407Z,99921.28
2019-01-17T08:37:34.899Z,99916.22
2019-01-17T08:38:40.767Z,99927.28
2019-01-17T08:39:46.318Z,99922.61
2019-01-17T08:40:51.744Z,99921.36
2019-01-17T08:41:56.670Z,99918.75
2019-01-17T08:43:02.020Z,99915.85
2019-01-17T08:44:07.279Z,99911.96
2019-01-17T08:45:12.604Z,99917.99
2019-01-17T08:46:18.273Z,99912.06
2019-01-17T08:47:23.204Z,99912.02
2019-01-17T08:48:29.393Z,99915.95
2019-01-17T08:49:35.096Z,99918.48
2019-01-17T08:50:40.047Z,99913.83
2019-01-17T08:51:47.327Z,99916.39
2019-01-17T08:52:59.574Z,99912.90
2019-01-17T08:54:04.432Z,99910.37
2019-01-17T08:55:10.322Z,99914.63
2019-01-17T08:56:15.629Z,99917.18
2019-01-17T08:57:21.452Z,99912.92
2019-01-17T08:58:26.458Z,99919.34
2019-01-17T08:59:32.389Z,99915.93
2019-01-17T09:01:21.558Z,99906.92
2019-01-17T09:02:26.497Z,99915.88
2019-01-17T09:03:31.927Z,99912.92
2019-01-17T09:04:37.498Z,99906.50
2019-01-17T09:05:42.024Z,99908.64
2019-01-17T09:06:46.970Z,99911.20
2019-01-17T09:07:52.790Z,99908.20
2019-01-17T09:08:57.989Z,99905.25
2019-01-17T09:10:02.964Z,99905.69
2019-01-17T09:11:08.215Z,99903.65
2019-01-17T09:12:13.136Z,99903.23
2019-01-17T09:13:18.706Z,99905.88
2019-01-17T09:14:23.668Z,99908.06
2019-01-17T09:15:30.897Z,99903.02
2019-01-17T09:16:36.317Z,99906.78
2019-01-17T09:17:41.571Z,99897.45
2019-01-17T09:18:46.717Z,99903.45
2019-01-17T09:19:51.640Z,99900.73
2019-01-17T09:20:56.754Z,99896.63
2019-01-17T09:22:02.092Z,99893.29
2019-01-17T09:23:07.381Z,99898.84
2019-01-17T09:24:12.712Z,99900.61
2019-01-17T09:25:18.921Z,99902.31
2019-01-17T09:26:25.400Z,99900.50
2019-01-17T09:27:34.200Z,99903.92
2019-01-17T09:28:52.302Z,99900.88
2019-01-17T09:29:59.704Z,99902.59
2019-01-17T09:31:04.928Z,99900.86
2019-01-17T09:32:10.249Z,99898.24
2019-01-17T09:33:15.509Z,99893.87
2019-01-17T09:34:21.159Z,99895.28
2019-01-17T09:35:26.478Z,99893.99
2019-01-17T09:36:31.416Z,99891.85
2019-01-17T09:37:35.969Z,99885.05
2019-01-17T09:38:41.138Z,99887.48
2019-01-17T09:39:46.322Z,99880.28
2019-01-17T09:40:55.074Z,99875.50
2019-01-17T09:42:00.143Z,99877.13
2019-01-17T09:43:04.828Z,99876.66
2019-01-17T09:44:09.618Z,99876.78
2019-01-17T09:45:15.030Z,99872.50
2019-01-17T09:46:19.729Z,99871.56
2019-01-17T09:47:24.987Z,99871.28
2019-01-17T09:48:30.227Z,99871.74
2019-01-17T09:49:35.976Z,99874.30
2019-01-17T09:50:41.256Z,99870.44
2019-01-17T09:51:46.592Z,99863.18
2019-01-17T09:52:51.480Z,99866.63
2019-01-17T09:53:58.191Z,99870.52
2019-01-17T09:55:03.139Z,99864.97
2019-01-17T09:56:08.151Z,99877.83
2019-01-17T09:57:16.586Z,99862.48
2019-01-17T09:58:21.084Z,99857.80
2019-01-17T09:59:26.341Z,99858.70
2019-01-17T10:00:32.438Z,99854.02
2019-01-17T10:01:37.664Z,99851.48
2019-01-17T10:02:42.483Z,99850.52
2019-01-17T10:03:48.254Z,99846.27
2019-01-17T10:04:53.498Z,99850.14
2019-01-17T10:05:58.967Z,99846.27
2019-01-17T10:07:03.896Z,99847.56
2019-01-17T10:08:09.148Z,99844.99
2019-01-17T10:09:14.418Z,99843.28
2019-01-17T10:10:19.430Z,99846.72
2019-01-17T10:11:24.386Z,99840.36
2019-01-17T10:12:29.619Z,99840.80
2019-01-17T10:13:35.560Z,99831.77
2019-01-17T10:14:40.420Z,99840.73
2019-01-17T10:16:05.621Z,99832.68
2019-01-17T10:17:20.763Z,99830.83
2019-01-17T10:18:51.120Z,99824.02
2019-01-17T10:20:36.881Z,99824.94
2019-01-17T10:22:08.351Z,99821.11
2019-01-17T10:23:53.035Z,99826.66
2019-01-17T10:25:57.299Z,99823.67
2019-01-17T10:27:28.467Z,99819.82
2019-01-17T10:29:14.377Z,99816.30
2019-01-17T10:30:55.467Z,99817.18
2019-01-17T10:32:35.759Z,99818.87
2019-01-17T10:33:51.364Z,99823.96
2019-01-17T10:35:21.719Z,99813.27
2019-01-17T10:37:13.721Z,99808.51
2019-01-17T10:38:46.443Z,99812.38
2019-01-17T10:40:40.280Z,99820.54
2019-01-17T10:42:11.584Z,99816.67
2019-01-17T10:43:51.947Z,99831.13
2019-01-17T10:45:25.620Z,99824.33
2019-01-17T10:47:05.790Z,99816.66
2019-01-17T10:49:03.863Z,99819.61
2019-01-17T10:50:29.346Z,99832.42
2019-01-17T10:52:03.647Z,99828.99
2019-01-17T10:53:49.918Z,99851.59
2019-01-17T10:55:25.990Z,99837.45
2019-01-17T10:57:14.024Z,99850.19
2019-01-17T10:58:29.926Z,99848.00
2019-01-17T11:00:08.316Z,99843.27
2019-01-17T11:02:08.033Z,99844.92
2019-01-17T11:04:09.946Z,99847.53
2019-01-17T11:05:31.315Z,99852.31
2019-01-17T11:06:52.906Z,99848.42
2019-01-17T11:08:59.555Z,99847.19
2019-01-17T11:10:41.859Z,99845.05
2019-01-17T11:12:15.888Z,99847.16
2019-01-17T11:13:43.132Z,99846.72
2019-01-17T11:15:24.610Z,99845.83
2019-01-17T11:17:04.739Z,99850.19
2019-01-17T11:18:43.802Z,99844.14
2019-01-17T11:20:06.752Z,99847.05
2019-01-17T11:21:54.588Z,99845.00
2019-01-17T11:23:33.089Z,99845.42
2019-01-17T11:25:16.293Z,99844.55
2019-01-17T11:26:45.251Z,99839.46
2019-01-17T11:28:26.977Z,99840.66
2019-01-17T11:30:11.471Z,99844.48
2019-01-17T11:31:39.117Z,99838.92
2019-01-17T11:33:14.879Z,99836.46
2019-01-17T11:34:58.526Z,99836.09
2019-01-17T11:36:33.833Z,99835.14
2019-01-17T11:38:13.525Z,99836.39
2019-01-17T11:39:33.037Z,99838.45
2019-01-17T11:41:19.075Z,99831.23
2019-01-17T11:43:07.561Z,99829.11
2019-01-17T11:44:50.764Z,99826.11
2019-01-17T11:46:35.061Z,99829.88
2019-01-17T11:48:10.898Z,99832.06
2019-01-17T11:49:46.269Z,99827.84
2019-01-17T11:51:03.885Z,99828.28
2019-01-17T11:53:01.362Z,99828.67
2019-01-17T11:54:35.837Z,99833.34
2019-01-17T11:55:59.260Z,99835.14
2019-01-17T11:57:26.581Z,99833.05
2019-01-17T11:59:21.996Z,99825.36
2019-01-17T12:00:54.869Z,99828.80
2019-01-17T12:02:49.385Z,99829.64
2019-01-17T12:04:26.967Z,99835.18
2019-01-17T12:05:31.884Z,99834.34
2019-01-17T12:06:37.066Z,99834.86
2019-01-17T12:07:42.649Z,99842.41
2019-01-17T12:08:47.877Z,99846.77
2019-01-17T12:09:53.499Z,99850.54
2019-01-17T12:10:59.065Z,99846.50
2019-01-17T12:12:04.043Z,99851.30
2019-01-17T12:13:09.907Z,99852.53
2019-01-17T12:14:14.880Z,99862.69
2019-01-17T12:15:19.879Z,99854.20
2019-01-17T12:16:24.722Z,99853.81
2019-01-17T12:17:29.280Z,99857.20
2019-01-17T12:18:33.834Z,99859.22
2019-01-17T12:19:39.004Z,99881.77
2019-01-17T12:20:43.807Z,99876.98
2019-01-17T12:21:50.473Z,99876.04
2019-01-17T12:22:55.782Z,99868.40
2019-01-17T12:24:00.591Z,99871.84
2019-01-17T12:25:06.147Z,99875.70
2019-01-17T12:26:11.372Z,99873.57
2019-01-17T12:27:16.633Z,99866.84
2019-01-17T12:28:21.577Z,99879.63
2019-01-17T12:29:26.463Z,99880.12
2019-01-17T12:30:31.805Z,99879.17
2019-01-17T12:31:37.170Z,99882.62
2019-01-17T12:32:42.362Z,99880.29
2019-01-17T12:33:47.567Z,99880.18
2019-01-17T12:34:52.847Z,99885.80
2019-01-17T12:35:57.836Z,99881.45
2019-01-17T12:37:03.094Z,99886.66
2019-01-17T12:38:07.998Z,99889.91
2019-01-17T12:39:14.044Z,99883.09
2019-01-17T12:40:18.874Z,99884.79
2019-01-17T12:41:24.149Z,99889.13
2019-01-17T12:42:29.765Z,99895.10
2019-01-17T12:43:34.690Z,99898.84
2019-01-17T12:44:39.648Z,99899.38
2019-01-17T12:45:44.950Z,99905.33
2019-01-17T12:46:50.774Z,99909.61
2019-01-17T12:47:57.179Z,99909.94
2019-01-17T12:49:02.591Z,99908.69
2019-01-17T12:50:16.844Z,99906.72
2019-01-17T12:51:22.429Z,99926.28
2019-01-17T12:52:27.292Z,99914.01
2019-01-17T12:53:33.156Z,99920.98
2019-01-17T12:54:38.107Z,99923.18
2019-01-17T12:55:42.874Z,99918.45
2019-01-17T12:56:53.874Z,99916.70
2019-01-17T12:57:55.096Z,99927.91
2019-01-17T12:59:00.590Z,99914.31
2019-01-17T13:00:07.831Z,99926.58
2019-01-17T13:01:12.430Z,99928.57
2019-01-17T13:02:17.336Z,99933.13
2019-01-17T13:03:22.701Z,99930.56
2019-01-17T13:04:27.524Z,99932.17
2019-01-17T13:05:32.678Z,99934.16
2019-01-17T13:06:37.508Z,99936.30
2019-01-17T13:07:42.841Z,99937.26
2019-01-17T13:08:48.370Z,99933.97
2019-01-17T13:09:53.175Z,99936.23
2019-01-17T13:10:58.174Z,99941.03
2019-01-17T13:12:02.783Z,99936.96
2019-01-17T13:13:08.014Z,99947.61
2019-01-17T13:14:12.952Z,99940.80
2019-01-17T13:15:18.374Z,99942.40
2019-01-17T13:16:23.555Z,99940.67
2019-01-17T13:17:28.863Z,99936.98
2019-01-17T13:18:34.038Z,99936.09
2019-01-17T13:19:39.196Z,99935.80
2019-01-17T13:20:44.040Z,99939.66
2019-01-17T13:21:48.891Z,99942.24
2019-01-17T13:22:53.984Z,99943.05
2019-01-17T13:24:01.783Z,99938.38
2019-01-17T13:25:08.223Z,99948.16
2019-01-17T13:26:13.350Z,99946.52
2019-01-17T13:27:19.138Z,99954.10
2019-01-17T13:28:24.009Z,99954.29
2019-01-17T13:29:28.797Z,99957.32
2019-01-17T13:30:34.079Z,99950.48
2019-01-17T13:31:38.927Z,99945.02
2019-01-17T13:32:43.951Z,99952.17
2019-01-17T13:33:49.155Z,99952.63
2019-01-17T13:34:53.903Z,99958.92
2019-01-17T13:35:59.065Z,99957.64
2019-01-17T13:37:03.639Z,99962.02
2019-01-17T13:38:08.944Z,99971.48
2019-01-17T13:39:14.065Z,99965.47
2019-01-17T13:40:21.142Z,99965.95
2019-01-17T13:41:25.936Z,99964.93
2019-01-17T13:42:31.241Z,99976.05
2019-01-17T13:43:36.501Z,99974.67
2019-01-17T13:44:41.099Z,99979.05
2019-01-17T13:45:45.942Z,99976.53
2019-01-17T13:46:50.800Z,99987.77
2019-01-17T13:47:55.755Z,99979.59
2019-01-17T13:49:00.562Z,99986.81
2019-01-17T13:50:05.764Z,99990.62
2019-01-17T13:51:10.828Z,99987.11
2019-01-17T13:52:16.066Z,99984.64
2019-01-17T13:53:20.660Z,99988.95
2019-01-17T13:54:25.211Z,99991.39